North Tazewell, VA (24630)

12:27 PM EST วัน พฤศจิกายน 21, 2014 (GMT -0500)
MesoWest T54A Tazewell VA US USARRAY | Change Station
CLOSE
Current Station
Personal Weather Stations
Location: Burkes Garden, VA
Elevation: 2794 ft
Nearby Weather Stations

Elev 2794 ft 37.06 °N, 81.58 °W | Updated 47 minutes ago

ท้องฟ้าแจ่มใส
ท้องฟ้าแจ่มใส
30 ฟาเรนไฮน์
Feels Like 23 ฟาเรนไฮน์
N
7
ลม ความผันแปร ลม from ทางทิศเหนือและทิศตะวันตกเฉียงเหนือ
Gusts 17.0 mph

วันนี้
High -- | Low -- ฟาเรนไฮน์
--% Chance of Precip.
Yesterday
High -- | Low -- ฟาเรนไฮน์
Precip. -- นิ้ว
7:11 AM 5:12 PM
เดือนเสี้ยว, 1% visible
ความดัน 30.39 นิ้ว
ทัศนวิสัย 10.0 ไมล์
เมฆ ท้องฟ้าแจ่มใส
ลมหนาว 23 ฟาเรนไฮน์
อุณหภูมิที่อากาศอาจจับตัวเป็นหยาดน้ำค้าง 7 ฟาเรนไฮน์
ความชื้น 38%
Rainfall -999.00 นิ้ว
Snow Depth Not available.
UV 4 out of 12
Pollen .10 out of 12
Air Quality Not available.
Flu Activity Not available.
METAR KJFZ 211715Z AUTO 31003KT 10SM CLR 01/M15 A3039 RMK AO2 T00131146

More Conditions Fewer Conditions

ความดัน 30.39 นิ้ว
ทัศนวิสัย 10.0 ไมล์
เมฆ ท้องฟ้าแจ่มใส
ลมหนาว 23 ฟาเรนไฮน์
อุณหภูมิที่อากาศอาจจับตัวเป็นหยาดน้ำค้าง 7 ฟาเรนไฮน์
ความชื้น 38%
Rainfall -999.00 นิ้ว
Snow Depth Not available.
UV 4 out of 12
Pollen .10 out of 12
Air Quality Not available.
Flu Activity Not available.
METAR KJFZ 211715Z AUTO 31003KT 10SM CLR 01/M15 A3039 RMK AO2 T00131146

More Conditions Fewer Conditions

10-Day Weather Forecast

Almanac

ดาราศาสตร์

Nov. 21, 2014 Rise Set
Actual Time
Civil Twilight
Nautical Twilight
Astronomical Twilight
Moon
Length Of Visible Light
ความยาวของวัน
Tomorrow will be .
, % of the Moon is Illuminated

Today's Extremes

State Highs State Lows

Community

WunderPhotos

Upload Photos

1,772,691 photos uploaded!

WunderBlogs® & News

Nearby

Air Quality

  Air Quality AQ Index Pollutant
Not available.

Snow Depth

Station Depth Elevation

Earthquake Activity

City Distance Mag. Time & Date
Minimum magnitude displayed is 2.5.

Coastal Water Temperatures

สถานที่ อุณหภูมิ

Nearby Weather Stations